createdAt,value
2023-02-13T00:00:16.842Z,4.46
2023-02-13T00:02:43.603Z,4.46
2023-02-13T00:05:10.238Z,4.43
2023-02-13T00:07:36.794Z,4.44
2023-02-13T00:10:03.886Z,4.46
2023-02-13T00:12:30.494Z,4.51
2023-02-13T00:14:57.079Z,4.49
2023-02-13T00:17:24.572Z,4.52
2023-02-13T00:19:52.016Z,4.52
2023-02-13T00:22:18.628Z,4.48
2023-02-13T00:24:45.361Z,4.51
2023-02-13T00:27:11.961Z,4.47
2023-02-13T00:29:38.607Z,4.45
2023-02-13T00:32:05.580Z,4.43
2023-02-13T00:34:32.988Z,4.44
2023-02-13T00:37:03.105Z,4.47
2023-02-13T00:39:29.842Z,4.46
2023-02-13T00:41:56.481Z,4.44
2023-02-13T00:44:23.129Z,4.41
2023-02-13T00:46:49.848Z,4.41
2023-02-13T00:49:16.931Z,4.40
2023-02-13T00:51:43.547Z,4.39
2023-02-13T00:54:10.148Z,4.37
2023-02-13T00:56:36.832Z,4.37
2023-02-13T00:59:03.536Z,4.39
2023-02-13T01:01:30.274Z,4.38
2023-02-13T01:03:58.403Z,4.41
2023-02-13T01:06:25.121Z,4.45
2023-02-13T01:08:52.121Z,4.48
2023-02-13T01:11:19.323Z,4.48
2023-02-13T01:13:46.514Z,4.48
2023-02-13T01:16:15.885Z,4.47
2023-02-13T01:18:42.600Z,4.47
2023-02-13T01:21:16.733Z,4.48
2023-02-13T01:23:43.667Z,4.48
2023-02-13T01:26:30.348Z,4.48
2023-02-13T01:28:58.060Z,4.49
2023-02-13T01:31:25.227Z,4.48
2023-02-13T01:33:51.928Z,4.48
2023-02-13T01:36:21.664Z,4.48
2023-02-13T01:38:48.497Z,4.48
2023-02-13T01:41:15.603Z,4.49
2023-02-13T01:43:52.969Z,4.48
2023-02-13T01:46:28.611Z,4.51
2023-02-13T01:49:00.921Z,4.49
2023-02-13T01:51:33.142Z,4.52
2023-02-13T01:54:04.378Z,4.50
2023-02-13T01:56:37.568Z,4.48
2023-02-13T01:59:11.914Z,4.49
2023-02-13T02:01:38.704Z,4.49
2023-02-13T02:04:11.115Z,4.49
2023-02-13T02:06:43.127Z,4.47
2023-02-13T02:09:16.776Z,4.47
2023-02-13T02:11:54.984Z,4.52
2023-02-13T02:14:23.935Z,4.51
2023-02-13T02:16:50.513Z,4.51
2023-02-13T02:19:44.763Z,4.51
2023-02-13T02:22:49.011Z,4.51
2023-02-13T02:26:13.788Z,4.53
2023-02-13T02:29:17.727Z,4.56
2023-02-13T02:32:33.249Z,4.55
2023-02-13T02:35:13.405Z,4.56
2023-02-13T02:37:52.629Z,4.57
2023-02-13T02:40:34.719Z,4.55
2023-02-13T02:43:14.004Z,4.54
2023-02-13T02:46:00.118Z,4.54
2023-02-13T02:49:21.086Z,4.54
2023-02-13T02:52:06.695Z,4.53
2023-02-13T02:55:07.327Z,4.53
2023-02-13T02:58:09.522Z,4.52
2023-02-13T03:01:00.241Z,4.51
2023-02-13T03:03:46.291Z,4.50
2023-02-13T03:06:19.785Z,4.48
2023-02-13T03:09:14.930Z,4.48
2023-02-13T03:12:01.516Z,4.48
2023-02-13T03:14:28.670Z,4.49
2023-02-13T03:17:16.392Z,4.49
2023-02-13T03:20:21.138Z,4.48
2023-02-13T03:23:02.935Z,4.46
2023-02-13T03:25:36.992Z,4.46
2023-02-13T03:28:22.309Z,4.46
2023-02-13T03:30:51.894Z,4.45
2023-02-13T03:33:29.350Z,4.44
2023-02-13T03:36:47.105Z,4.43
2023-02-13T03:39:44.187Z,4.42
2023-02-13T03:42:37.848Z,4.43
2023-02-13T03:45:41.224Z,4.42
2023-02-13T03:48:29.698Z,4.43
2023-02-13T03:50:59.031Z,4.42
2023-02-13T03:53:28.869Z,4.42
2023-02-13T03:56:17.695Z,4.41
2023-02-13T03:59:08.970Z,4.41
2023-02-13T04:01:37.334Z,4.41
2023-02-13T04:04:21.336Z,4.42
2023-02-13T04:06:57.859Z,4.40
2023-02-13T04:09:27.377Z,4.42
2023-02-13T04:12:02.473Z,4.38
2023-02-13T04:14:41.477Z,4.38
2023-02-13T04:17:21.807Z,4.40
2023-02-13T04:19:48.636Z,4.39
2023-02-13T04:22:15.655Z,4.37
2023-02-13T04:24:42.363Z,4.35
2023-02-13T04:27:13.081Z,4.35
2023-02-13T04:29:39.552Z,4.36
2023-02-13T04:32:06.202Z,4.34
2023-02-13T04:34:32.793Z,4.35
2023-02-13T04:36:59.373Z,4.37
2023-02-13T04:39:26.034Z,4.35
2023-02-13T04:41:52.637Z,4.35
2023-02-13T04:44:19.247Z,4.33
2023-02-13T04:46:45.786Z,4.31
2023-02-13T04:49:12.461Z,4.30
2023-02-13T04:51:39.213Z,4.29
2023-02-13T04:54:05.848Z,4.28
2023-02-13T04:56:32.457Z,4.28
2023-02-13T04:58:59.032Z,4.30
2023-02-13T05:01:25.680Z,4.30
2023-02-13T05:03:52.303Z,4.31
2023-02-13T05:06:18.959Z,4.29
2023-02-13T05:08:45.550Z,4.27
2023-02-13T05:11:12.162Z,4.28
2023-02-13T05:13:38.749Z,4.28
2023-02-13T05:16:05.747Z,4.29
2023-02-13T05:18:32.335Z,4.27
2023-02-13T05:21:17.237Z,4.27
2023-02-13T05:23:43.826Z,4.32
2023-02-13T05:26:10.367Z,4.30
2023-02-13T05:28:55.504Z,4.28
2023-02-13T05:31:22.297Z,4.29
2023-02-13T05:33:49.000Z,4.27
2023-02-13T05:36:15.531Z,4.26
2023-02-13T05:38:42.187Z,4.26
2023-02-13T05:41:08.773Z,4.24
2023-02-13T05:43:35.371Z,4.23
2023-02-13T05:46:09.882Z,4.23
2023-02-13T05:48:37.212Z,4.24
2023-02-13T05:51:04.285Z,4.22
2023-02-13T05:53:31.070Z,4.23
2023-02-13T05:55:57.648Z,4.22
2023-02-13T05:58:24.176Z,4.21
2023-02-13T06:00:50.801Z,4.21
2023-02-13T06:03:17.361Z,4.20
2023-02-13T06:05:43.999Z,4.20
2023-02-13T06:08:10.616Z,4.21
2023-02-13T06:10:37.247Z,4.19
2023-02-13T06:13:03.939Z,4.19
2023-02-13T06:15:30.599Z,4.19
2023-02-13T06:17:58.573Z,4.17
2023-02-13T06:20:25.216Z,4.16
2023-02-13T06:22:52.002Z,4.18
2023-02-13T06:25:19.277Z,4.18
2023-02-13T06:27:47.582Z,4.18
2023-02-13T06:30:15.335Z,4.18
2023-02-13T06:32:41.981Z,4.18
2023-02-13T06:35:09.395Z,4.18
2023-02-13T06:37:36.076Z,4.16
2023-02-13T06:40:02.726Z,4.20
2023-02-13T06:42:29.346Z,4.19
2023-02-13T06:44:55.914Z,4.18
2023-02-13T06:47:22.484Z,4.18
2023-02-13T06:49:49.057Z,4.16
2023-02-13T06:52:15.674Z,4.15
2023-02-13T06:54:47.625Z,4.16
2023-02-13T06:57:15.703Z,4.18
2023-02-13T06:59:42.730Z,4.17
2023-02-13T07:02:11.019Z,4.18
2023-02-13T07:04:37.752Z,4.17
2023-02-13T07:07:04.722Z,4.18
2023-02-13T07:09:32.458Z,4.16
2023-02-13T07:11:59.181Z,4.18
2023-02-13T07:14:25.992Z,4.18
2023-02-13T07:16:52.546Z,4.15
2023-02-13T07:19:19.148Z,4.15
2023-02-13T07:21:45.894Z,4.18
2023-02-13T07:24:12.437Z,4.18
2023-02-13T07:26:39.068Z,4.20
2023-02-13T07:29:11.645Z,4.19
2023-02-13T07:31:39.401Z,4.19
2023-02-13T07:34:06.085Z,4.19
2023-02-13T07:36:32.832Z,4.17
2023-02-13T07:38:59.402Z,4.16
2023-02-13T07:41:26.861Z,4.16
2023-02-13T07:43:54.560Z,4.16
2023-02-13T07:46:21.431Z,4.16
2023-02-13T07:48:48.108Z,4.18
2023-02-13T07:51:14.757Z,4.15
2023-02-13T07:53:41.414Z,4.17
2023-02-13T07:56:09.511Z,4.18
2023-02-13T07:58:37.102Z,4.16
2023-02-13T08:01:11.367Z,4.16
2023-02-13T08:03:38.730Z,4.18
2023-02-13T08:06:06.677Z,4.19
2023-02-13T08:08:33.512Z,4.22
2023-02-13T08:11:25.164Z,4.20
2023-02-13T08:13:52.097Z,4.24
2023-02-13T08:16:18.786Z,4.23
2023-02-13T08:18:45.384Z,4.21
2023-02-13T08:21:12.046Z,4.20
2023-02-13T08:23:38.663Z,4.19
2023-02-13T08:26:05.300Z,4.18
2023-02-13T08:28:31.965Z,4.17
2023-02-13T08:30:58.708Z,4.19
2023-02-13T08:33:25.359Z,4.21
2023-02-13T08:35:51.965Z,4.22
2023-02-13T08:38:18.569Z,4.26
2023-02-13T08:40:45.194Z,4.28
2023-02-13T08:43:11.839Z,4.32
2023-02-13T08:45:38.527Z,4.34
2023-02-13T08:48:05.206Z,4.39
2023-02-13T08:50:31.979Z,4.40
2023-02-13T08:52:59.333Z,4.43
2023-02-13T08:55:27.258Z,4.46
2023-02-13T08:57:53.857Z,4.46
2023-02-13T09:00:20.924Z,4.48
2023-02-13T09:02:47.552Z,4.48
2023-02-13T09:05:14.284Z,4.47
2023-02-13T09:07:40.897Z,4.49
2023-02-13T09:10:07.802Z,4.50
2023-02-13T09:12:34.444Z,4.51
2023-02-13T09:15:01.264Z,4.55
2023-02-13T09:17:27.941Z,4.63
2023-02-13T09:19:54.522Z,4.69
2023-02-13T09:22:21.118Z,4.71
2023-02-13T09:24:47.642Z,4.75
2023-02-13T09:27:14.211Z,4.74
2023-02-13T09:29:40.801Z,4.72
2023-02-13T09:32:07.595Z,4.72
2023-02-13T09:34:34.353Z,4.74
2023-02-13T09:37:00.932Z,4.75
2023-02-13T09:39:27.512Z,4.79
2023-02-13T09:41:56.076Z,4.85
2023-02-13T09:44:44.797Z,4.92
2023-02-13T09:47:30.117Z,5.03
2023-02-13T09:50:06.556Z,5.12
2023-02-13T09:52:37.667Z,5.21
2023-02-13T09:55:15.742Z,5.29
2023-02-13T09:58:05.600Z,5.38
2023-02-13T10:00:40.447Z,5.42
2023-02-13T10:03:12.987Z,5.45
2023-02-13T10:06:06.916Z,5.43
2023-02-13T10:08:42.818Z,5.48
2023-02-13T10:11:26.983Z,5.49
2023-02-13T10:14:11.659Z,5.56
2023-02-13T10:16:42.569Z,5.65
2023-02-13T10:19:14.303Z,5.73
2023-02-13T10:21:50.817Z,5.78
2023-02-13T10:24:23.370Z,5.84
2023-02-13T10:26:49.998Z,5.88
2023-02-13T10:30:05.794Z,5.95
2023-02-13T10:32:43.168Z,6.00
2023-02-13T10:35:21.020Z,6.06
2023-02-13T10:37:51.710Z,6.15
2023-02-13T10:40:19.033Z,6.29
2023-02-13T10:42:53.889Z,6.39
2023-02-13T10:46:08.331Z,6.38
2023-02-13T10:48:59.955Z,6.43
2023-02-13T10:51:40.477Z,6.39
2023-02-13T10:54:28.828Z,6.27
2023-02-13T10:57:20.115Z,6.27
2023-02-13T11:00:17.988Z,6.33
2023-02-13T11:02:44.957Z,6.26
2023-02-13T11:05:39.670Z,6.13
2023-02-13T11:08:18.779Z,6.17
2023-02-13T11:10:45.352Z,6.26
2023-02-13T11:13:24.224Z,6.28
2023-02-13T11:16:06.461Z,6.17
2023-02-13T11:18:39.591Z,6.10
2023-02-13T11:21:14.745Z,6.01
2023-02-13T11:23:45.030Z,5.93
2023-02-13T11:26:32.743Z,5.82
2023-02-13T11:29:18.173Z,5.77
2023-02-13T11:31:44.920Z,5.76
2023-02-13T11:34:29.336Z,5.76
2023-02-13T11:37:15.151Z,5.77
2023-02-13T11:39:44.256Z,5.73
2023-02-13T11:42:14.580Z,5.66
2023-02-13T11:44:44.052Z,5.70
2023-02-13T11:47:10.881Z,5.68
2023-02-13T11:49:39.386Z,5.64
2023-02-13T11:52:11.080Z,5.72
2023-02-13T11:54:44.934Z,5.85
2023-02-13T11:57:35.241Z,5.94
2023-02-13T12:00:31.062Z,5.97
2023-02-13T12:02:58.527Z,5.91
2023-02-13T12:05:29.314Z,5.88
2023-02-13T12:08:00.430Z,5.85
2023-02-13T12:10:33.926Z,5.88
2023-02-13T12:13:24.352Z,5.94
2023-02-13T12:16:00.289Z,5.89
2023-02-13T12:18:36.841Z,5.84
2023-02-13T12:21:04.365Z,5.81
2023-02-13T12:23:49.137Z,5.85
2023-02-13T12:26:48.284Z,5.80
2023-02-13T12:29:23.080Z,5.83
2023-02-13T12:32:26.524Z,5.85
2023-02-13T12:35:29.401Z,5.87
2023-02-13T12:38:08.821Z,5.91
2023-02-13T12:40:58.450Z,5.94
2023-02-13T12:43:43.760Z,6.00
2023-02-13T12:46:29.836Z,5.97
2023-02-13T12:49:09.327Z,6.01
2023-02-13T12:52:08.106Z,6.03
2023-02-13T12:55:15.850Z,6.08
2023-02-13T12:58:20.893Z,6.15
2023-02-13T13:01:03.866Z,6.20
2023-02-13T13:03:52.049Z,6.17
2023-02-13T13:06:29.724Z,6.10
2023-02-13T13:09:25.056Z,6.07
2023-02-13T13:11:57.756Z,6.09
2023-02-13T13:14:32.861Z,6.28
2023-02-13T13:17:20.576Z,6.58
2023-02-13T13:20:29.916Z,6.74
2023-02-13T13:23:21.325Z,6.85
2023-02-13T13:25:58.039Z,6.78
2023-02-13T13:28:30.446Z,6.83
2023-02-13T13:30:58.879Z,6.76
2023-02-13T13:33:28.096Z,6.66
2023-02-13T13:36:27.299Z,6.66
2023-02-13T13:39:21.751Z,6.70
2023-02-13T13:42:02.396Z,6.67
2023-02-13T13:44:47.423Z,6.61
2023-02-13T13:47:37.391Z,6.62
2023-02-13T13:50:06.021Z,6.71
2023-02-13T13:52:37.456Z,6.79
2023-02-13T13:55:04.855Z,6.87
2023-02-13T13:57:40.448Z,6.85
2023-02-13T14:00:07.702Z,6.73
2023-02-13T14:03:11.104Z,6.56
2023-02-13T14:05:59.353Z,6.46
2023-02-13T14:08:57.117Z,6.32
2023-02-13T14:11:29.734Z,6.18
2023-02-13T14:13:56.409Z,6.10
2023-02-13T14:16:45.184Z,6.09
2023-02-13T14:19:33.164Z,6.05
2023-02-13T14:22:38.593Z,5.98
2023-02-13T14:25:07.265Z,5.95
2023-02-13T14:27:39.033Z,5.93
2023-02-13T14:30:25.770Z,5.80
2023-02-13T14:32:52.911Z,5.69
2023-02-13T14:35:27.330Z,5.63
2023-02-13T14:37:59.464Z,5.55
2023-02-13T14:40:42.309Z,5.54
2023-02-13T14:43:27.029Z,5.56
2023-02-13T14:45:58.088Z,5.56
2023-02-13T14:48:43.514Z,5.53
2023-02-13T14:51:28.476Z,5.44
2023-02-13T14:54:01.507Z,5.39
2023-02-13T14:56:29.630Z,5.27
2023-02-13T14:59:05.311Z,5.28
2023-02-13T15:01:34.983Z,5.23
2023-02-13T15:04:15.235Z,5.15
2023-02-13T15:06:45.634Z,5.09
2023-02-13T15:09:22.076Z,5.10
2023-02-13T15:11:48.946Z,5.08
2023-02-13T15:14:20.334Z,5.06
2023-02-13T15:16:51.725Z,5.07
2023-02-13T15:19:20.862Z,5.03
2023-02-13T15:22:00.148Z,5.00
2023-02-13T15:24:36.619Z,4.97
2023-02-13T15:27:05.963Z,4.93
2023-02-13T15:29:47.861Z,4.88
2023-02-13T15:32:25.901Z,4.84
2023-02-13T15:34:52.557Z,4.79
2023-02-13T15:37:24.978Z,4.79
2023-02-13T15:39:51.650Z,4.78
2023-02-13T15:42:18.507Z,4.75
2023-02-13T15:44:48.882Z,4.75
2023-02-13T15:47:26.435Z,4.75
2023-02-13T15:49:53.555Z,4.75
2023-02-13T15:52:32.199Z,4.73
2023-02-13T15:54:59.370Z,4.73
2023-02-13T15:57:27.341Z,4.72
2023-02-13T15:59:57.219Z,4.73
2023-02-13T16:02:31.744Z,4.78
2023-02-13T16:05:01.273Z,4.81
2023-02-13T16:07:27.901Z,4.81
2023-02-13T16:10:15.352Z,4.77
2023-02-13T16:12:48.866Z,4.72
2023-02-13T16:15:18.226Z,4.69
2023-02-13T16:17:46.844Z,4.66
2023-02-13T16:20:13.458Z,4.63
2023-02-13T16:22:47.171Z,4.63
2023-02-13T16:25:17.073Z,4.63
2023-02-13T16:27:48.659Z,4.60
2023-02-13T16:30:33.564Z,4.56
2023-02-13T16:33:15.360Z,4.52
2023-02-13T16:35:48.999Z,4.49
2023-02-13T16:38:29.399Z,4.49
2023-02-13T16:40:58.873Z,4.45
2023-02-13T16:43:45.199Z,4.44
2023-02-13T16:46:20.776Z,4.43
2023-02-13T16:48:56.599Z,4.41
2023-02-13T16:51:29.606Z,4.42
2023-02-13T16:53:58.522Z,4.41
2023-02-13T16:56:25.703Z,4.39
2023-02-13T16:59:05.350Z,4.35
2023-02-13T17:01:32.154Z,4.34
2023-02-13T17:03:58.807Z,4.30
2023-02-13T17:06:25.472Z,4.32
2023-02-13T17:08:52.827Z,4.29
2023-02-13T17:11:19.889Z,4.29
2023-02-13T17:13:46.451Z,4.28
2023-02-13T17:16:13.137Z,4.26
2023-02-13T17:18:39.732Z,4.24
2023-02-13T17:21:06.475Z,4.23
2023-02-13T17:23:33.133Z,4.27
2023-02-13T17:25:59.935Z,4.28
2023-02-13T17:28:29.392Z,4.26
2023-02-13T17:30:58.574Z,4.23
2023-02-13T17:33:25.372Z,4.21
2023-02-13T17:35:52.949Z,4.20
2023-02-13T17:38:20.118Z,4.17
2023-02-13T17:40:47.572Z,4.18
2023-02-13T17:43:16.699Z,4.20
2023-02-13T17:45:43.740Z,4.20
2023-02-13T17:48:10.349Z,4.20
2023-02-13T17:50:38.175Z,4.19
2023-02-13T17:53:08.467Z,4.14
2023-02-13T17:55:35.955Z,4.12
2023-02-13T17:58:02.849Z,4.13
2023-02-13T18:00:32.658Z,4.14
2023-02-13T18:03:00.951Z,4.16
2023-02-13T18:05:28.630Z,4.16
2023-02-13T18:07:55.560Z,4.14
2023-02-13T18:10:25.538Z,4.15
2023-02-13T18:12:53.832Z,4.15
2023-02-13T18:15:20.746Z,4.20
2023-02-13T18:17:48.016Z,4.20
2023-02-13T18:20:18.098Z,4.18
2023-02-13T18:22:44.857Z,4.18
2023-02-13T18:25:12.025Z,4.20
2023-02-13T18:27:39.101Z,4.19
2023-02-13T18:30:06.622Z,4.16
2023-02-13T18:32:33.714Z,4.15
2023-02-13T18:35:00.852Z,4.13
2023-02-13T18:37:29.425Z,4.12
2023-02-13T18:39:56.544Z,4.14
2023-02-13T18:42:23.231Z,4.10
2023-02-13T18:44:49.815Z,4.12
2023-02-13T18:47:17.367Z,4.08
2023-02-13T18:49:46.368Z,4.05
2023-02-13T18:52:12.956Z,4.00
2023-02-13T18:54:39.596Z,3.95
2023-02-13T18:57:06.685Z,3.94
2023-02-13T18:59:33.385Z,3.93
2023-02-13T19:02:01.249Z,3.91
2023-02-13T19:04:29.164Z,3.91
2023-02-13T19:06:55.866Z,3.89
2023-02-13T19:09:22.452Z,3.88
2023-02-13T19:11:49.049Z,3.88
2023-02-13T19:14:15.895Z,3.88
2023-02-13T19:16:42.927Z,3.87
2023-02-13T19:19:10.466Z,3.87
2023-02-13T19:21:38.494Z,3.88
2023-02-13T19:24:08.634Z,3.89
2023-02-13T19:26:35.965Z,3.90
2023-02-13T19:29:02.798Z,3.90
2023-02-13T19:31:31.497Z,3.92
2023-02-13T19:34:00.335Z,3.97
2023-02-13T19:36:28.935Z,4.03
2023-02-13T19:38:58.229Z,4.05
2023-02-13T19:41:25.798Z,4.08
2023-02-13T19:43:55.647Z,4.05
2023-02-13T19:46:28.196Z,4.04
2023-02-13T19:48:54.847Z,4.02
2023-02-13T19:51:24.450Z,4.00
2023-02-13T19:54:00.217Z,3.99
2023-02-13T19:56:28.030Z,4.06
2023-02-13T19:58:54.877Z,4.05
2023-02-13T20:01:24.377Z,4.05
2023-02-13T20:03:51.067Z,4.06
2023-02-13T20:06:24.627Z,4.06
2023-02-13T20:08:52.285Z,4.08
2023-02-13T20:11:20.706Z,4.16
2023-02-13T20:13:47.754Z,4.16
2023-02-13T20:16:16.613Z,4.17
2023-02-13T20:18:43.446Z,4.18
2023-02-13T20:21:13.221Z,4.15
2023-02-13T20:23:41.386Z,4.13
2023-02-13T20:26:13.879Z,4.10
2023-02-13T20:28:42.843Z,4.10
2023-02-13T20:31:11.083Z,4.11
2023-02-13T20:33:39.495Z,4.10
2023-02-13T20:36:10.321Z,4.08
2023-02-13T20:38:37.205Z,4.08
2023-02-13T20:41:08.820Z,4.11
2023-02-13T20:43:35.462Z,4.13
2023-02-13T20:46:02.092Z,4.13
2023-02-13T20:48:28.831Z,4.14
2023-02-13T20:51:02.596Z,4.11
2023-02-13T20:53:30.327Z,4.09
2023-02-13T20:56:10.657Z,4.10
2023-02-13T20:58:38.069Z,4.07
2023-02-13T21:01:12.486Z,4.07
2023-02-13T21:03:39.303Z,4.07
2023-02-13T21:06:06.454Z,4.07
2023-02-13T21:08:33.154Z,4.12
2023-02-13T21:11:04.892Z,4.12
2023-02-13T21:13:35.364Z,4.14
2023-02-13T21:16:16.813Z,4.15
2023-02-13T21:18:46.703Z,4.18
2023-02-13T21:21:13.441Z,4.13
2023-02-13T21:23:40.042Z,4.12
2023-02-13T21:26:13.146Z,4.13
2023-02-13T21:28:41.280Z,4.09
2023-02-13T21:31:11.797Z,4.05
2023-02-13T21:33:38.492Z,4.01
2023-02-13T21:36:07.933Z,4.05
2023-02-13T21:38:38.486Z,4.11
2023-02-13T21:41:08.068Z,4.11
2023-02-13T21:43:37.828Z,4.08
2023-02-13T21:46:12.956Z,4.12
2023-02-13T21:48:41.417Z,4.13
2023-02-13T21:51:12.816Z,4.10
2023-02-13T21:53:39.824Z,4.13
2023-02-13T21:56:10.453Z,4.12
2023-02-13T21:58:37.962Z,4.10
2023-02-13T22:01:20.521Z,4.07
2023-02-13T22:03:52.874Z,4.04
2023-02-13T22:06:21.001Z,4.07
2023-02-13T22:08:48.526Z,4.08
2023-02-13T22:11:17.411Z,4.06
2023-02-13T22:13:44.061Z,4.06
2023-02-13T22:16:13.262Z,4.06
2023-02-13T22:18:45.220Z,4.03
2023-02-13T22:21:14.285Z,4.00
2023-02-13T22:23:42.713Z,3.99
2023-02-13T22:26:20.875Z,3.99
2023-02-13T22:28:49.003Z,3.98
2023-02-13T22:31:17.152Z,3.96
2023-02-13T22:33:47.594Z,3.93
2023-02-13T22:36:18.096Z,3.92
2023-02-13T22:38:44.986Z,3.94
2023-02-13T22:41:14.404Z,3.93
2023-02-13T22:43:41.813Z,3.93
2023-02-13T22:46:12.634Z,3.92
2023-02-13T22:48:40.450Z,3.91
2023-02-13T22:51:10.200Z,3.91
2023-02-13T22:53:38.151Z,3.92
2023-02-13T22:56:07.331Z,3.92
2023-02-13T22:58:34.428Z,4.01
2023-02-13T23:01:01.469Z,3.96
2023-02-13T23:03:31.157Z,3.93
2023-02-13T23:05:57.727Z,3.90
2023-02-13T23:08:24.289Z,3.89
2023-02-13T23:11:09.708Z,3.94
2023-02-13T23:13:36.267Z,3.96
2023-02-13T23:16:02.908Z,3.95
2023-02-13T23:18:29.468Z,3.96
2023-02-13T23:20:56.050Z,3.97
2023-02-13T23:23:24.103Z,3.98
2023-02-13T23:25:50.679Z,3.97
2023-02-13T23:28:17.303Z,3.95
2023-02-13T23:30:43.954Z,3.92
2023-02-13T23:33:10.586Z,3.91
2023-02-13T23:35:37.175Z,3.89
2023-02-13T23:38:03.694Z,3.90
2023-02-13T23:40:30.312Z,3.88
2023-02-13T23:42:57.095Z,3.87
2023-02-13T23:45:23.647Z,3.88
2023-02-13T23:47:50.249Z,3.87
2023-02-13T23:50:16.950Z,3.86
2023-02-13T23:52:43.540Z,3.86
2023-02-13T23:55:10.311Z,3.88
2023-02-13T23:57:36.876Z,3.88
